createdAt,value
2023-01-13T00:00:33.091Z,99874.69
2023-01-13T00:02:59.674Z,99867.88
2023-01-13T00:05:26.738Z,99878.28
2023-01-13T00:07:53.292Z,99873.06
2023-01-13T00:10:19.940Z,99877.94
2023-01-13T00:12:46.469Z,99879.91
2023-01-13T00:15:13.458Z,99885.03
2023-01-13T00:17:40.045Z,99883.75
2023-01-13T00:20:07.118Z,99882.94
2023-01-13T00:22:36.621Z,99884.72
2023-01-13T00:25:04.377Z,99869.94
2023-01-13T00:27:31.726Z,99869.00
2023-01-13T00:29:58.338Z,99873.22
2023-01-13T00:32:25.139Z,99873.53
2023-01-13T00:34:51.636Z,99863.72
2023-01-13T00:37:18.097Z,99868.09
2023-01-13T00:39:45.724Z,99868.94
2023-01-13T00:42:31.123Z,99859.66
2023-01-13T00:44:57.593Z,99866.16
2023-01-13T00:47:24.098Z,99861.50
2023-01-13T00:49:50.560Z,99865.94
2023-01-13T00:52:16.987Z,99865.28
2023-01-13T00:54:43.573Z,99864.47
2023-01-13T00:57:10.060Z,99866.94
2023-01-13T00:59:36.701Z,99864.00
2023-01-13T01:02:03.294Z,99868.50
2023-01-13T01:04:32.516Z,99869.53
2023-01-13T01:06:59.101Z,99870.16
2023-01-13T01:09:32.649Z,99873.63
2023-01-13T01:11:59.932Z,99868.59
2023-01-13T01:14:27.233Z,99872.53
2023-01-13T01:16:54.452Z,99874.41
2023-01-13T01:19:20.990Z,99873.41
2023-01-13T01:21:47.610Z,99863.78
2023-01-13T01:24:16.564Z,99872.16
2023-01-13T01:26:43.179Z,99866.31
2023-01-13T01:29:11.889Z,99861.00
2023-01-13T01:31:38.405Z,99868.41
2023-01-13T01:34:04.895Z,99864.78
2023-01-13T01:36:35.054Z,99851.06
2023-01-13T01:39:01.865Z,99862.22
2023-01-13T01:41:29.950Z,99856.78
2023-01-13T01:44:03.752Z,99848.19
2023-01-13T01:46:35.588Z,99847.38
2023-01-13T01:49:21.024Z,99843.81
2023-01-13T01:52:10.686Z,99847.66
2023-01-13T01:54:43.997Z,99845.28
2023-01-13T01:57:11.347Z,99842.66
2023-01-13T01:59:38.622Z,99848.19
2023-01-13T02:02:05.554Z,99842.56
2023-01-13T02:04:34.619Z,99835.03
2023-01-13T02:07:02.288Z,99848.19
2023-01-13T02:09:29.009Z,99848.41
2023-01-13T02:12:14.232Z,99841.44
2023-01-13T02:14:41.442Z,99843.41
2023-01-13T02:17:08.109Z,99839.38
2023-01-13T02:19:53.497Z,99839.44
2023-01-13T02:22:23.035Z,99835.47
2023-01-13T02:25:15.757Z,99836.72
2023-01-13T02:27:45.232Z,99828.06
2023-01-13T02:30:33.765Z,99827.16
2023-01-13T02:33:06.049Z,99822.03
2023-01-13T02:35:38.505Z,99822.03
2023-01-13T02:38:05.915Z,99825.16
2023-01-13T02:40:36.253Z,99824.28
2023-01-13T02:43:31.794Z,99822.59
2023-01-13T02:46:22.106Z,99824.81
2023-01-13T02:48:51.846Z,99829.59
2023-01-13T02:51:21.324Z,99816.88
2023-01-13T02:53:56.840Z,99817.28
2023-01-13T02:56:24.132Z,99816.16
2023-01-13T02:58:51.315Z,99823.47
2023-01-13T03:01:17.965Z,99817.00
2023-01-13T03:03:44.667Z,99814.91
2023-01-13T03:06:11.089Z,99820.63
2023-01-13T03:08:46.721Z,99820.97
2023-01-13T03:11:14.502Z,99821.63
2023-01-13T03:13:43.940Z,99811.00
2023-01-13T03:16:19.558Z,99798.47
2023-01-13T03:18:52.683Z,99800.09
2023-01-13T03:21:22.366Z,99794.88
2023-01-13T03:23:57.819Z,99794.72
2023-01-13T03:26:27.122Z,99800.78
2023-01-13T03:28:56.424Z,99800.06
2023-01-13T03:31:26.608Z,99802.56
2023-01-13T03:33:58.891Z,99801.47
2023-01-13T03:36:28.043Z,99801.94
2023-01-13T03:38:57.830Z,99798.72
2023-01-13T03:41:29.841Z,99804.16
2023-01-13T03:44:22.410Z,99809.47
2023-01-13T03:46:51.678Z,99802.44
2023-01-13T03:49:20.633Z,99813.09
2023-01-13T03:51:49.686Z,99813.38
2023-01-13T03:54:17.424Z,99808.44
2023-01-13T03:56:49.325Z,99809.47
2023-01-13T03:59:24.171Z,99800.66
2023-01-13T04:01:50.816Z,99802.97
2023-01-13T04:04:21.350Z,99798.97
2023-01-13T04:06:53.011Z,99797.84
2023-01-13T04:09:31.734Z,99793.44
2023-01-13T04:12:11.407Z,99793.75
2023-01-13T04:14:38.090Z,99796.84
2023-01-13T04:17:05.240Z,99794.38
2023-01-13T04:19:33.144Z,99800.06
2023-01-13T04:22:00.943Z,99792.22
2023-01-13T04:24:27.436Z,99789.63
2023-01-13T04:26:54.063Z,99792.94
2023-01-13T04:29:23.585Z,99795.25
2023-01-13T04:31:50.076Z,99802.38
2023-01-13T04:34:18.719Z,99812.75
2023-01-13T04:36:45.260Z,99806.06
2023-01-13T04:39:11.768Z,99813.16
2023-01-13T04:41:56.947Z,99804.72
2023-01-13T04:44:23.418Z,99813.19
2023-01-13T04:46:49.895Z,99816.19
2023-01-13T04:49:16.464Z,99800.38
2023-01-13T04:51:42.919Z,99809.78
2023-01-13T04:54:11.955Z,99802.63
2023-01-13T04:56:42.646Z,99817.25
2023-01-13T04:59:15.410Z,99824.09
2023-01-13T05:01:45.212Z,99829.09
2023-01-13T05:04:11.974Z,99828.03
2023-01-13T05:06:40.652Z,99818.34
2023-01-13T05:09:09.539Z,99814.28
2023-01-13T05:11:54.435Z,99819.38
2023-01-13T05:14:40.646Z,99825.53
2023-01-13T05:17:10.109Z,99825.31
2023-01-13T05:19:40.781Z,99817.06
2023-01-13T05:22:25.999Z,99827.94
2023-01-13T05:25:11.004Z,99818.66
2023-01-13T05:27:37.446Z,99812.09
2023-01-13T05:30:04.424Z,99824.59
2023-01-13T05:32:31.131Z,99834.63
2023-01-13T05:34:57.653Z,99839.22
2023-01-13T05:37:24.404Z,99827.81
2023-01-13T05:40:09.561Z,99830.53
2023-01-13T05:42:54.560Z,99834.31
2023-01-13T05:45:21.407Z,99839.47
2023-01-13T05:47:47.929Z,99840.06
2023-01-13T05:50:14.521Z,99842.31
2023-01-13T05:52:41.064Z,99837.69
2023-01-13T05:55:07.701Z,99831.50
2023-01-13T05:57:34.140Z,99834.16
2023-01-13T06:00:00.693Z,99838.03
2023-01-13T06:02:27.287Z,99834.97
2023-01-13T06:04:53.811Z,99843.88
2023-01-13T06:07:22.432Z,99833.44
2023-01-13T06:09:48.872Z,99829.84
2023-01-13T06:12:15.325Z,99830.44
2023-01-13T06:14:41.790Z,99832.03
2023-01-13T06:17:12.076Z,99850.91
2023-01-13T06:19:38.860Z,99859.81
2023-01-13T06:22:08.361Z,99867.22
2023-01-13T06:24:34.901Z,99859.84
2023-01-13T06:27:01.363Z,99862.56
2023-01-13T06:29:27.889Z,99859.84
2023-01-13T06:31:54.511Z,99857.00
2023-01-13T06:34:21.041Z,99863.63
2023-01-13T06:36:50.704Z,99866.25
2023-01-13T06:39:19.024Z,99849.84
2023-01-13T06:42:06.714Z,99840.13
2023-01-13T06:44:33.264Z,99812.31
2023-01-13T06:46:59.962Z,99826.19
2023-01-13T06:49:26.556Z,99819.59
2023-01-13T06:51:53.021Z,99835.19
2023-01-13T06:54:19.574Z,99837.59
2023-01-13T06:56:46.082Z,99836.72
2023-01-13T06:59:12.572Z,99848.34
2023-01-13T07:01:39.102Z,99836.50
2023-01-13T07:04:05.658Z,99839.00
2023-01-13T07:06:32.445Z,99852.28
2023-01-13T07:09:01.112Z,99842.56
2023-01-13T07:11:28.853Z,99844.78
2023-01-13T07:14:13.794Z,99840.59
2023-01-13T07:16:43.030Z,99831.19
2023-01-13T07:19:09.730Z,99810.13
2023-01-13T07:21:36.532Z,99820.13
2023-01-13T07:24:03.257Z,99852.38
2023-01-13T07:26:32.030Z,99835.41
2023-01-13T07:29:00.969Z,99799.94
2023-01-13T07:31:30.005Z,99826.84
2023-01-13T07:33:58.862Z,99847.72
2023-01-13T07:36:27.501Z,99849.66
2023-01-13T07:38:57.187Z,99829.25
2023-01-13T07:41:42.883Z,99863.06
2023-01-13T07:44:11.095Z,99866.50
2023-01-13T07:46:38.733Z,99872.38
2023-01-13T07:49:05.740Z,99872.75
2023-01-13T07:51:35.299Z,99868.50
2023-01-13T07:54:01.803Z,99856.84
2023-01-13T07:56:28.397Z,99874.03
2023-01-13T07:58:54.971Z,99864.06
2023-01-13T08:01:22.635Z,99880.53
2023-01-13T08:03:49.132Z,99899.31
2023-01-13T08:06:15.675Z,99896.28
2023-01-13T08:08:42.111Z,99900.78
2023-01-13T08:11:08.916Z,99896.19
2023-01-13T08:13:35.431Z,99896.88
2023-01-13T08:16:12.205Z,99906.22
2023-01-13T08:18:39.132Z,99908.81
2023-01-13T08:21:07.880Z,99922.22
2023-01-13T08:23:34.826Z,99931.88
2023-01-13T08:26:02.757Z,99917.50
2023-01-13T08:28:31.307Z,99923.84
2023-01-13T08:31:08.155Z,99899.31
2023-01-13T08:33:35.190Z,99908.75
2023-01-13T08:36:11.611Z,99914.19
2023-01-13T08:38:41.139Z,99913.16
2023-01-13T08:41:18.137Z,99900.22
2023-01-13T08:43:44.674Z,99897.94
2023-01-13T08:46:14.443Z,99906.69
2023-01-13T08:48:41.121Z,99924.75
2023-01-13T08:51:09.039Z,99935.19
2023-01-13T08:53:38.312Z,99938.50
2023-01-13T08:56:11.781Z,99931.66
2023-01-13T08:58:38.654Z,99948.22
2023-01-13T09:01:05.994Z,99938.09
2023-01-13T09:03:32.685Z,99912.91
2023-01-13T09:05:59.365Z,99872.81
2023-01-13T09:08:25.854Z,99793.78
2023-01-13T09:10:52.412Z,99798.06
2023-01-13T09:13:20.408Z,99838.13
2023-01-13T09:15:47.369Z,99876.53
2023-01-13T09:18:13.969Z,99895.72
2023-01-13T09:20:40.677Z,99922.03
2023-01-13T09:23:10.045Z,99928.69
2023-01-13T09:25:37.043Z,99928.69
2023-01-13T09:28:05.019Z,99914.59
2023-01-13T09:30:31.897Z,99915.53
2023-01-13T09:33:19.131Z,99918.00
2023-01-13T09:35:45.603Z,99905.53
2023-01-13T09:38:12.024Z,99903.56
2023-01-13T09:40:41.316Z,99894.25
2023-01-13T09:43:36.775Z,99885.47
2023-01-13T09:46:27.271Z,99905.00
2023-01-13T09:48:54.340Z,99913.19
2023-01-13T09:51:28.252Z,99931.28
2023-01-13T09:53:56.908Z,99921.72
2023-01-13T09:56:24.446Z,99917.41
2023-01-13T09:58:51.023Z,99923.63
2023-01-13T10:01:40.879Z,99932.50
2023-01-13T10:04:11.650Z,99937.53
2023-01-13T10:06:39.423Z,99949.13
2023-01-13T10:09:06.243Z,99946.81
2023-01-13T10:11:53.128Z,99951.94
2023-01-13T10:14:33.731Z,99948.88
2023-01-13T10:17:19.002Z,99942.28
2023-01-13T10:20:16.916Z,99936.94
2023-01-13T10:23:04.218Z,99928.81
2023-01-13T10:25:42.625Z,99944.16
2023-01-13T10:28:11.813Z,99941.88
2023-01-13T10:30:40.309Z,99940.59
2023-01-13T10:33:06.843Z,99940.94
2023-01-13T10:35:52.133Z,99948.47
2023-01-13T10:38:28.444Z,99948.16
2023-01-13T10:40:56.457Z,99939.81
2023-01-13T10:43:23.357Z,99945.31
2023-01-13T10:46:13.245Z,99942.44
2023-01-13T10:48:41.724Z,99933.13
2023-01-13T10:51:18.093Z,99935.72
2023-01-13T10:53:46.497Z,99933.31
2023-01-13T10:56:19.785Z,99935.72
2023-01-13T10:58:46.636Z,99939.66
2023-01-13T11:01:21.249Z,99930.78
2023-01-13T11:03:48.356Z,99939.75
2023-01-13T11:06:25.732Z,99944.63
2023-01-13T11:08:55.327Z,99950.97
2023-01-13T11:11:42.292Z,99952.56
2023-01-13T11:14:33.160Z,99950.34
2023-01-13T11:17:26.283Z,99944.88
2023-01-13T11:20:05.662Z,99936.41
2023-01-13T11:22:34.092Z,99937.03
2023-01-13T11:25:01.862Z,99941.63
2023-01-13T11:27:37.217Z,99946.41
2023-01-13T11:30:10.061Z,99954.34
2023-01-13T11:32:48.881Z,99950.19
2023-01-13T11:35:19.440Z,99948.78
2023-01-13T11:37:50.380Z,99946.63
2023-01-13T11:40:21.427Z,99945.44
2023-01-13T11:43:06.741Z,99947.97
2023-01-13T11:45:49.514Z,99944.97
2023-01-13T11:48:17.798Z,99940.19
2023-01-13T11:50:57.175Z,99946.25
2023-01-13T11:53:42.373Z,99945.31
2023-01-13T11:56:08.871Z,99939.50
2023-01-13T11:58:59.485Z,99951.16
2023-01-13T12:01:32.468Z,99948.16
2023-01-13T12:04:25.326Z,99945.53
2023-01-13T12:07:13.059Z,99944.25
2023-01-13T12:09:47.795Z,99952.81
2023-01-13T12:12:32.968Z,99961.66
2023-01-13T12:15:18.368Z,99943.13
2023-01-13T12:17:52.602Z,99945.44
2023-01-13T12:20:25.587Z,99956.25
2023-01-13T12:22:53.915Z,99942.22
2023-01-13T12:25:23.358Z,99948.69
2023-01-13T12:27:55.342Z,99959.00
2023-01-13T12:30:40.472Z,99945.16
2023-01-13T12:33:16.322Z,99945.75
2023-01-13T12:36:20.100Z,99964.41
2023-01-13T12:38:49.073Z,99958.59
2023-01-13T12:41:18.939Z,99953.66
2023-01-13T12:44:06.557Z,99959.38
2023-01-13T12:46:33.960Z,99958.19
2023-01-13T12:49:04.628Z,99955.09
2023-01-13T12:51:34.237Z,99953.53
2023-01-13T12:54:01.446Z,99956.63
2023-01-13T12:56:37.025Z,99963.84
2023-01-13T12:59:19.137Z,99960.22
2023-01-13T13:01:47.138Z,99961.03
2023-01-13T13:04:21.828Z,99964.09
2023-01-13T13:06:53.856Z,99967.56
2023-01-13T13:09:32.699Z,99956.63
2023-01-13T13:12:42.023Z,99971.16
2023-01-13T13:15:22.845Z,99965.53
2023-01-13T13:18:01.823Z,99968.88
2023-01-13T13:20:47.309Z,99971.41
2023-01-13T13:23:32.454Z,99961.44
2023-01-13T13:25:59.325Z,99974.91
2023-01-13T13:28:25.995Z,99975.47
2023-01-13T13:31:07.336Z,99976.38
2023-01-13T13:33:39.242Z,99977.25
2023-01-13T13:36:32.434Z,99974.97
2023-01-13T13:39:17.853Z,99979.00
2023-01-13T13:42:05.626Z,99982.22
2023-01-13T13:44:55.003Z,99992.72
2023-01-13T13:47:21.599Z,99981.50
2023-01-13T13:49:52.568Z,99982.13
2023-01-13T13:52:33.709Z,99989.09
2023-01-13T13:55:05.838Z,99986.38
2023-01-13T13:57:39.540Z,99995.19
2023-01-13T14:00:11.490Z,99992.31
2023-01-13T14:02:38.123Z,100002.34
2023-01-13T14:05:09.029Z,100002.56
2023-01-13T14:07:42.399Z,99999.06
2023-01-13T14:10:14.406Z,100004.91
2023-01-13T14:12:41.589Z,100005.00
2023-01-13T14:15:27.544Z,100004.28
2023-01-13T14:17:54.292Z,100014.84
2023-01-13T14:20:22.174Z,100016.53
2023-01-13T14:22:49.614Z,100006.09
2023-01-13T14:25:29.664Z,100022.94
2023-01-13T14:27:57.177Z,100012.84
2023-01-13T14:30:25.927Z,100013.63
2023-01-13T14:32:52.979Z,100009.81
2023-01-13T14:35:19.869Z,100019.66
2023-01-13T14:37:48.976Z,100021.53
2023-01-13T14:40:36.144Z,100028.31
2023-01-13T14:43:03.882Z,100019.97
2023-01-13T14:45:33.761Z,100027.75
2023-01-13T14:48:01.384Z,100020.22
2023-01-13T14:50:32.817Z,100015.81
2023-01-13T14:53:00.944Z,100017.44
2023-01-13T14:55:36.838Z,100010.75
2023-01-13T14:58:21.734Z,100020.25
2023-01-13T15:00:49.477Z,100014.31
2023-01-13T15:03:16.970Z,100015.19
2023-01-13T15:05:47.950Z,100016.19
2023-01-13T15:08:14.457Z,100026.84
2023-01-13T15:10:53.075Z,100021.63
2023-01-13T15:13:26.247Z,100016.84
2023-01-13T15:15:54.828Z,100024.78
2023-01-13T15:18:24.387Z,100029.56
2023-01-13T15:20:53.637Z,100027.25
2023-01-13T15:23:20.707Z,100027.78
2023-01-13T15:25:50.835Z,100026.34
2023-01-13T15:28:19.341Z,100029.97
2023-01-13T15:30:45.966Z,100031.75
2023-01-13T15:33:13.086Z,100045.16
2023-01-13T15:35:41.565Z,100045.31
2023-01-13T15:38:16.005Z,100049.38
2023-01-13T15:40:42.944Z,100047.69
2023-01-13T15:43:38.237Z,100044.03
2023-01-13T15:46:39.657Z,100056.75
2023-01-13T15:49:12.788Z,100057.00
2023-01-13T15:51:40.302Z,100046.22
2023-01-13T15:54:09.949Z,100053.22
2023-01-13T15:56:36.780Z,100059.06
2023-01-13T15:59:04.044Z,100056.91
2023-01-13T16:01:30.517Z,100047.59
2023-01-13T16:03:57.045Z,100051.06
2023-01-13T16:06:27.931Z,100058.88
2023-01-13T16:08:54.397Z,100062.53
2023-01-13T16:11:20.888Z,100063.38
2023-01-13T16:13:47.386Z,100063.19
2023-01-13T16:16:24.397Z,100073.59
2023-01-13T16:18:51.786Z,100071.53
2023-01-13T16:21:22.148Z,100074.75
2023-01-13T16:23:49.459Z,100069.66
2023-01-13T16:26:23.611Z,100079.03
2023-01-13T16:28:51.320Z,100083.59
2023-01-13T16:31:20.211Z,100083.94
2023-01-13T16:33:46.791Z,100090.38
2023-01-13T16:36:14.580Z,100092.25
2023-01-13T16:38:41.356Z,100093.72
2023-01-13T16:41:08.471Z,100096.66
2023-01-13T16:43:35.552Z,100093.41
2023-01-13T16:46:02.470Z,100092.03
2023-01-13T16:48:29.010Z,100102.41
2023-01-13T16:50:55.794Z,100099.59
2023-01-13T16:53:22.485Z,100110.47
2023-01-13T16:55:49.022Z,100108.56
2023-01-13T16:58:17.385Z,100106.97
2023-01-13T17:00:46.995Z,100104.56
2023-01-13T17:03:14.143Z,100123.59
2023-01-13T17:05:41.352Z,100130.44
2023-01-13T17:08:10.268Z,100125.31
2023-01-13T17:10:36.718Z,100133.47
2023-01-13T17:13:14.732Z,100137.09
2023-01-13T17:15:42.380Z,100133.75
2023-01-13T17:18:09.034Z,100137.50
2023-01-13T17:20:35.569Z,100141.69
2023-01-13T17:23:02.046Z,100140.06
2023-01-13T17:25:28.751Z,100150.81
2023-01-13T17:28:10.564Z,100151.13
2023-01-13T17:30:37.220Z,100153.56
2023-01-13T17:33:03.765Z,100149.75
2023-01-13T17:38:23.254Z,100148.44
2023-01-13T17:40:53.940Z,100158.22
2023-01-13T17:43:20.436Z,100170.69
2023-01-13T17:45:47.106Z,100172.06
2023-01-13T17:48:13.729Z,100171.97
2023-01-13T17:50:40.434Z,100173.63
2023-01-13T17:53:06.951Z,100177.28
2023-01-13T17:55:33.406Z,100172.34
2023-01-13T17:57:59.896Z,100173.63
2023-01-13T18:00:26.476Z,100174.59
2023-01-13T18:02:54.502Z,100180.44
2023-01-13T18:05:21.069Z,100180.41
2023-01-13T18:07:47.541Z,100187.66
2023-01-13T18:10:14.389Z,100196.03
2023-01-13T18:12:40.896Z,100196.41
2023-01-13T18:15:07.743Z,100199.91
2023-01-13T18:17:34.308Z,100206.16
2023-01-13T18:20:19.198Z,100209.81
2023-01-13T18:23:04.381Z,100209.81
2023-01-13T18:25:49.365Z,100212.56
2023-01-13T18:28:15.925Z,100221.13
2023-01-13T18:30:42.465Z,100217.03
2023-01-13T18:33:08.986Z,100213.59
2023-01-13T18:35:37.984Z,100208.66
2023-01-13T18:38:04.441Z,100211.22
2023-01-13T18:40:31.409Z,100213.47
2023-01-13T18:42:59.303Z,100220.84
2023-01-13T18:45:29.164Z,100224.19
2023-01-13T18:47:56.912Z,100221.00
2023-01-13T18:50:23.529Z,100219.72
2023-01-13T18:52:50.089Z,100221.03
2023-01-13T18:55:17.222Z,100222.16
2023-01-13T18:57:43.779Z,100225.19
2023-01-13T19:00:12.770Z,100239.63
2023-01-13T19:02:39.602Z,100243.06
2023-01-13T19:05:06.513Z,100247.25
2023-01-13T19:07:35.030Z,100244.84
2023-01-13T19:10:04.245Z,100248.16
2023-01-13T19:12:31.440Z,100251.34
2023-01-13T19:14:58.628Z,100261.13
2023-01-13T19:17:26.326Z,100260.78
2023-01-13T19:19:54.326Z,100267.88
2023-01-13T19:22:23.340Z,100266.56
2023-01-13T19:24:51.050Z,100264.44
2023-01-13T19:27:18.609Z,100276.00
2023-01-13T19:29:48.633Z,100272.41
2023-01-13T19:32:18.746Z,100277.16
2023-01-13T19:34:46.814Z,100278.13
2023-01-13T19:37:13.517Z,100275.38
2023-01-13T19:39:39.967Z,100275.06
2023-01-13T19:42:25.396Z,100281.22
2023-01-13T19:45:10.675Z,100280.69
2023-01-13T19:47:38.746Z,100280.66
2023-01-13T19:50:07.962Z,100293.06
2023-01-13T19:52:34.618Z,100294.91
2023-01-13T19:55:02.134Z,100292.94
2023-01-13T19:57:28.767Z,100291.84
2023-01-13T19:59:55.262Z,100299.28
2023-01-13T20:02:28.465Z,100318.34
2023-01-13T20:04:56.123Z,100307.00
2023-01-13T20:07:24.131Z,100305.78
2023-01-13T20:09:51.469Z,100309.88
2023-01-13T20:12:18.558Z,100319.56
2023-01-13T20:14:46.475Z,100320.94
2023-01-13T20:17:14.082Z,100319.38
2023-01-13T20:19:41.250Z,100327.63
2023-01-13T20:22:07.951Z,100336.75
2023-01-13T20:24:34.861Z,100342.91
2023-01-13T20:27:01.565Z,100347.38
2023-01-13T20:29:28.755Z,100342.09
2023-01-13T20:31:55.520Z,100338.28
2023-01-13T20:34:22.052Z,100346.00
2023-01-13T20:36:50.046Z,100350.91
2023-01-13T20:39:17.821Z,100359.13
2023-01-13T20:42:02.831Z,100353.81
2023-01-13T20:44:29.743Z,100360.41
2023-01-13T20:46:57.869Z,100357.97
2023-01-13T20:49:25.378Z,100358.94
2023-01-13T20:51:51.981Z,100352.59
2023-01-13T20:54:18.785Z,100350.34
2023-01-13T20:56:45.267Z,100357.97
2023-01-13T20:59:12.012Z,100354.91
2023-01-13T21:01:38.938Z,100362.81
2023-01-13T21:04:06.912Z,100361.69
2023-01-13T21:06:34.096Z,100371.69
2023-01-13T21:09:00.774Z,100369.09
2023-01-13T21:11:46.651Z,100376.09
2023-01-13T21:14:36.253Z,100385.50
2023-01-13T21:17:03.188Z,100388.66
2023-01-13T21:19:29.671Z,100380.63
2023-01-13T21:21:56.666Z,100386.38
2023-01-13T21:24:23.860Z,100375.34
2023-01-13T21:26:58.987Z,100388.63
2023-01-13T21:29:25.498Z,100382.50
2023-01-13T21:31:54.020Z,100387.13
2023-01-13T21:34:20.553Z,100402.38
2023-01-13T21:36:47.049Z,100392.84
2023-01-13T21:39:15.467Z,100417.97
2023-01-13T21:42:00.775Z,100407.47
2023-01-13T21:44:45.830Z,100403.50
2023-01-13T21:47:32.835Z,100416.44
2023-01-13T21:49:59.372Z,100415.19
2023-01-13T21:52:26.179Z,100411.50
2023-01-13T21:55:11.187Z,100414.47
2023-01-13T21:57:37.626Z,100411.91
2023-01-13T22:00:05.312Z,100415.94
2023-01-13T22:02:32.135Z,100416.09
2023-01-13T22:04:59.678Z,100413.84
2023-01-13T22:07:27.638Z,100417.00
2023-01-13T22:09:54.624Z,100420.47
2023-01-13T22:12:24.980Z,100417.78
2023-01-13T22:14:52.175Z,100429.84
2023-01-13T22:17:23.144Z,100423.00
2023-01-13T22:19:52.776Z,100422.91
2023-01-13T22:22:19.814Z,100429.72
2023-01-13T22:24:47.427Z,100424.66
2023-01-13T22:27:15.438Z,100428.72
2023-01-13T22:29:42.703Z,100441.22
2023-01-13T22:32:09.269Z,100436.09
2023-01-13T22:34:35.812Z,100430.31
2023-01-13T22:37:02.390Z,100445.25
2023-01-13T22:39:29.108Z,100437.47
2023-01-13T22:41:55.604Z,100445.59
2023-01-13T22:44:22.104Z,100446.38
2023-01-13T22:46:48.674Z,100445.84
2023-01-13T22:49:15.860Z,100456.59
2023-01-13T22:51:42.379Z,100452.47
2023-01-13T22:54:09.636Z,100461.38
2023-01-13T22:56:36.253Z,100465.91
2023-01-13T22:59:03.816Z,100468.25
2023-01-13T23:01:32.007Z,100473.53
2023-01-13T23:03:59.050Z,100468.84
2023-01-13T23:06:28.437Z,100477.84
2023-01-13T23:08:55.605Z,100478.75
2023-01-13T23:11:26.617Z,100477.00
2023-01-13T23:13:58.514Z,100479.75
2023-01-13T23:16:25.362Z,100481.09
2023-01-13T23:18:51.977Z,100480.75
2023-01-13T23:21:20.146Z,100478.25
2023-01-13T23:23:47.006Z,100486.50
2023-01-13T23:26:13.938Z,100487.66
2023-01-13T23:28:40.424Z,100487.59
2023-01-13T23:31:07.705Z,100484.00
2023-01-13T23:33:34.641Z,100484.75
2023-01-13T23:36:03.478Z,100488.69
2023-01-13T23:38:30.125Z,100493.47
2023-01-13T23:40:56.743Z,100500.44
2023-01-13T23:43:23.317Z,100502.66
2023-01-13T23:45:50.086Z,100516.69
2023-01-13T23:48:18.633Z,100516.00
2023-01-13T23:50:45.141Z,100510.38
2023-01-13T23:53:11.589Z,100507.25
2023-01-13T23:55:40.637Z,100502.66
2023-01-13T23:58:07.120Z,100499.56
